Dades meteomassalio
Diari Summary for Noviembre 21, 2017 Units:  English    Metric   Both
« Previous Day
Next Day »
Diari Semanal Mensual Anual Personalitzat
  Maxima: Minima: Mijana:
Temperatura: TemperatureC °F -4.4 °F 3.4 °F
Rosada: DewpointC °F -7.5 °F -4.5 °F
Humitat: Humidity % 31 % 59 %
Velocitat del vent: WindSpeedKMH mph 0.0 mph 1 mph
Racha vent: WindSpeedGustKMH mph - -
Vent:- - ESE
Pressio: PressurehPa in 1023.6 in -
Pluja: 0.0 in    
Historical Graphs
 
 
Tabular Data for Noviembre 21, 2017
Time Temperature Dew Point Pressure Wind Wind Speed Wind Gust Humidity Rainfall Rate (Hourly) solar Conditions
TemperatureC °F DewpointC °F PressurehPa in Calm     Humidity % HourlyPrecipMM in SolarRadiationWatts/m^2 W/m2 Conditions
00:05 0.0 °F -5.0 °F 1027.0 in Calm     69 % 0.0 in 0.0 W/m2 CLR
00:10 0.0 °F -4.8 °F 1027.0 in Calm     70 % 0.0 in 0.0 W/m2 CLR
00:15 -0.6 °F -5.3 °F 1027.0 in Calm     70 % 0.0 in 0.0 W/m2 CLR
00:20 -0.6 °F -5.3 °F 1027.0 in Calm     70 % 0.0 in 0.0 W/m2 CLR
00:25 -0.6 °F -5.3 °F 1027.0 in Calm     70 % 0.0 in 0.0 W/m2 CLR
00:35 -1.1 °F -5.9 °F 1027.0 in Calm     70 % 0.0 in 0.0 W/m2 CLR
00:40 -1.1 °F -5.9 °F 1027.0 in Calm     70 % 0.0 in 0.0 W/m2 CLR
00:45 -1.1 °F -5.7 °F 1027.0 in Calm     71 % 0.0 in 0.0 W/m2 CLR
01:00 -1.7 °F -5.9 °F 1027.0 in Calm     73 % 0.0 in 0.0 W/m2 CLR
01:05 -1.7 °F -5.9 °F 1027.0 in Calm     73 % 0.0 in 0.0 W/m2 CLR
01:10 -1.7 °F -5.7 °F 1027.0 in Calm     74 % 0.0 in 0.0 W/m2 CLR
01:15 -1.7 °F -5.9 °F 1027.0 in Calm     73 % 0.0 in 0.0 W/m2 CLR
01:22 -1.7 °F -5.9 °F 1027.0 in Calm     73 % 0.0 in 0.0 W/m2 CLR
01:27 -1.7 °F -5.9 °F 1027.0 in Calm     73 % 0.0 in 0.0 W/m2 CLR
01:28 -1.7 °F -5.9 °F 1027.0 in Calm     73 % 0.0 in 0.0 W/m2 CLR
01:29 -1.7 °F -5.9 °F 1027.0 in Calm     73 % 0.0 in 0.0 W/m2 CLR
01:37 -2.2 °F -6.2 °F 1027.0 in Calm     74 % 0.0 in 0.0 W/m2 CLR
01:47 -2.2 °F -6.2 °F 1027.0 in Calm     74 % 0.0 in 0.0 W/m2 CLR
01:52 -2.2 °F -6.1 °F 1027.0 in Calm     75 % 0.0 in 0.0 W/m2 CLR
01:57 -2.8 °F -6.6 °F 1027.0 in Calm     75 % 0.0 in 0.0 W/m2 CLR
02:02 -2.8 °F -6.8 °F 1027.0 in Calm     74 % 0.0 in 0.0 W/m2 CLR
02:07 -2.2 °F -6.6 °F 1027.0 in Calm     72 % 0.0 in 0.0 W/m2 CLR
02:12 -2.2 °F -6.4 °F 1027.0 in Calm     73 % 0.0 in 0.0 W/m2 CLR
02:22 -2.2 °F -6.2 °F 1027.0 in Calm     74 % 0.0 in 0.0 W/m2 CLR
02:37 -2.2 °F -6.2 °F 1027.0 in Calm     74 % 0.0 in 0.0 W/m2 CLR
02:42 -2.2 °F -6.1 °F 1027.0 in Calm     75 % 0.0 in 0.0 W/m2 CLR
02:47 -2.2 °F -6.1 °F 1027.0 in Calm     75 % 0.0 in 0.0 W/m2 CLR
02:52 -2.2 °F -5.9 °F 1026.6 in Calm     76 % 0.0 in 0.0 W/m2 CLR
02:57 -2.2 °F -5.9 °F 1026.6 in Calm     76 % 0.0 in 0.0 W/m2 CLR
03:07 -2.2 °F -5.7 °F 1026.6 in Calm     77 % 0.0 in 0.0 W/m2 CLR
03:12 -2.8 °F -6.3 °F 1026.6 in Calm     77 % 0.0 in 0.0 W/m2 CLR
03:22 -2.2 °F -5.6 °F 1026.6 in Calm     78 % 0.0 in 0.0 W/m2 CLR
03:27 -2.2 °F -5.6 °F 1026.3 in Calm     78 % 0.0 in 0.0 W/m2 CLR
03:37 -1.7 °F -5.0 °F 1026.6 in Calm     78 % 0.0 in 0.0 W/m2 CLR
03:42 -1.7 °F -5.3 °F 1026.3 in Calm     76 % 0.0 in 0.0 W/m2 CLR
03:53 -1.7 °F -5.2 °F 1026.3 in Calm     77 % 0.0 in 0.0 W/m2 CLR
03:58 -1.7 °F -5.2 °F 1026.3 in Calm     77 % 0.0 in 0.0 W/m2 CLR
04:03 -1.7 °F -5.0 °F 1026.3 in Calm     78 % 0.0 in 0.0 W/m2 CLR
04:08 -1.7 °F -4.8 °F 1026.3 in Calm     79 % 0.0 in 0.0 W/m2 CLR
04:14 -1.7 °F -4.8 °F 1026.3 in Calm     79 % 0.0 in 0.0 W/m2 CLR
04:19 -2.2 °F -5.4 °F 1026.3 in Calm     79 % 0.0 in 0.0 W/m2 CLR
04:24 -2.2 °F -5.6 °F 1026.3 in Calm     78 % 0.0 in 0.0 W/m2 CLR
04:25 -2.2 °F -5.6 °F 1026.3 in Calm     78 % 0.0 in 0.0 W/m2 CLR
04:30 -2.2 °F -5.6 °F 1026.3 in Calm     78 % 0.0 in 0.0 W/m2 CLR
04:35 -2.8 °F -5.9 °F 1026.3 in Calm     79 % 0.0 in 0.0 W/m2 CLR
04:40 -2.8 °F -5.9 °F 1026.3 in Calm     79 % 0.0 in 0.0 W/m2 CLR
04:45 -2.8 °F -5.7 °F 1026.3 in Calm     80 % 0.0 in 0.0 W/m2 CLR
04:56 -2.2 °F -5.2 °F 1026.3 in Calm     80 % 0.0 in 0.0 W/m2 CLR
05:01 -2.2 °F -5.2 °F 1026.3 in Calm     80 % 0.0 in 0.0 W/m2 CLR
05:06 -2.2 °F -5.2 °F 1026.3 in Calm     80 % 0.0 in 0.0 W/m2 CLR
05:21 -2.8 °F -5.7 °F 1026.0 in Calm     80 % 0.0 in 0.0 W/m2 CLR
05:31 -2.8 °F -5.9 °F 1026.3 in Calm     79 % 0.0 in 0.0 W/m2 CLR
05:36 -3.3 °F -6.4 °F 1026.3 in Calm     79 % 0.0 in 0.0 W/m2 CLR
05:47 -3.3 °F -6.3 °F 1026.3 in Calm     80 % 0.0 in 0.0 W/m2 CLR
05:52 -2.8 °F -5.6 °F 1026.3 in Calm     81 % 0.0 in 0.0 W/m2 CLR
05:57 -2.8 °F -5.6 °F 1026.3 in Calm     81 % 0.0 in 0.0 W/m2 CLR
06:02 -2.8 °F -5.4 °F 1026.3 in Calm     82 % 0.0 in 0.0 W/m2 CLR
06:07 -2.8 °F -5.6 °F 1026.3 in Calm     81 % 0.0 in 0.0 W/m2 CLR
06:12 -3.3 °F -5.9 °F 1026.3 in Calm     82 % 0.0 in 0.0 W/m2 CLR
06:17 -3.3 °F -5.9 °F 1026.3 in Calm     82 % 0.0 in 0.0 W/m2 CLR
06:22 -3.3 °F -5.9 °F 1026.3 in Calm     82 % 0.0 in 0.0 W/m2 CLR
06:32 -3.9 °F -7.0 °F 1026.3 in Calm     79 % 0.0 in 0.0 W/m2 CLR
06:37 -3.9 °F -6.7 °F 1026.3 in Calm     81 % 0.0 in 0.0 W/m2 CLR
06:42 -3.9 °F -6.7 °F 1026.3 in Calm     81 % 0.0 in 0.0 W/m2 CLR
06:52 -3.9 °F -6.5 °F 1026.3 in Calm     82 % 0.0 in 0.0 W/m2 CLR
06:57 -3.9 °F -6.5 °F 1026.3 in Calm     82 % 0.0 in 0.0 W/m2 CLR
07:07 -4.4 °F -7.1 °F 1026.3 in Calm     82 % 0.0 in 0.0 W/m2 CLR
07:12 -4.4 °F -7.2 °F 1026.3 in Calm     81 % 0.0 in 0.0 W/m2 CLR
07:17 -4.4 °F -7.2 °F 1026.3 in Calm     81 % 0.0 in 0.0 W/m2 CLR
07:32 -3.9 °F -6.5 °F 1026.3 in Calm     82 % 0.0 in 0.0 W/m2 CLR
07:37 -3.9 °F -6.5 °F 1026.6 in Calm     82 % 0.0 in 0.0 W/m2 CLR
07:42 -3.9 °F -6.7 °F 1026.6 in Calm     81 % 0.0 in 0.0 W/m2 CLR
07:47 -3.9 °F -6.7 °F 1026.3 in Calm     81 % 0.0 in 5.0 W/m2 OVC
07:52 -3.9 °F -6.7 °F 1026.3 in Calm     81 % 0.0 in 5.0 W/m2 OVC
07:57 -3.9 °F -6.8 °F 1026.6 in Calm     80 % 0.0 in 7.0 W/m2 BKN
08:02 -3.9 °F -6.8 °F 1026.6 in Calm     80 % 0.0 in 12.0 W/m2 BKN
08:07 -3.9 °F -6.8 °F 1026.6 in Calm     80 % 0.0 in 16.0 W/m2 BKN
08:12 -3.9 °F -6.7 °F 1026.6 in Calm     81 % 0.0 in 18.0 W/m2 BKN
08:17 -3.9 °F -6.7 °F 1026.6 in Calm     81 % 0.0 in 21.0 W/m2 BKN
08:22 -3.9 °F -6.5 °F 1026.6 in Calm     82 % 0.0 in 25.0 W/m2 BKN
08:27 -3.9 °F -6.7 °F 1026.6 in Calm     81 % 0.0 in 33.0 W/m2 BKN
08:32 -3.9 °F -6.8 °F 1026.6 in Calm     80 % 0.0 in 40.0 W/m2 BKN
08:37 -3.9 °F -7.0 °F 1027.0 in Calm     79 % 0.0 in 44.0 W/m2 BKN
08:42 -3.9 °F -7.0 °F 1027.0 in Calm     79 % 0.0 in 54.0 W/m2 SCT
08:47 -3.9 °F -7.2 °F 1027.0 in Calm     78 % 0.0 in 58.0 W/m2 SCT
08:58 -3.3 °F -7.1 °F 1027.0 in Calm     75 % 0.0 in 100.0 W/m2 FEW
09:03 -3.3 °F -7.3 °F 1027.0 in Calm     74 % 0.0 in 109.0 W/m2 CLR
09:08 -2.8 °F -6.9 °F 1027.0 in Calm     73 % 0.0 in 123.0 W/m2 CLR
09:13 -2.8 °F -6.9 °F 1027.0 in Calm     73 % 0.0 in 134.0 W/m2 CLR
09:23 -2.2 °F -7.2 °F 1027.0 in Calm     69 % 0.0 in 172.0 W/m2 CLR
09:28 -2.2 °F -7.5 °F 1027.0 in Calm     67 % 0.0 in 185.0 W/m2 CLR
09:38 -1.1 °F -6.8 °F 1027.3 in Calm     65 % 0.0 in 214.0 W/m2 CLR
09:43 -0.6 °F -6.6 °F 1027.3 in Calm     64 % 0.0 in 221.0 W/m2 CLR
09:48 -0.6 °F -6.6 °F 1027.0 in Calm     64 % 0.0 in 246.0 W/m2 CLR
09:58 0.0 °F -6.8 °F 1027.3 in Calm     60 % 0.0 in 265.0 W/m2 CLR
10:08 1.7 °F -5.9 °F 1027.3 in Calm     57 % 0.0 in 295.0 W/m2 CLR
10:18 2.8 °F -5.4 °F 1027.0 in Calm     55 % 0.0 in 316.0 W/m2 CLR
10:23 3.3 °F -5.1 °F 1027.0 in Calm     54 % 0.0 in 327.0 W/m2 CLR
10:28 3.3 °F -5.6 °F 1027.0 in Calm     52 % 0.0 in 334.0 W/m2 CLR
10:38 4.4 °F -5.3 °F 1027.0 in Calm     49 % 0.0 in 355.0 W/m2 CLR
10:43 5.0 °F -5.1 °F 1027.0 in Calm     48 % 0.0 in 355.0 W/m2 CLR
10:53 6.1 °F -4.9 °F 1027.0 in Calm     45 % 0.0 in 360.0 W/m2 CLR
10:58 6.7 °F -4.4 °F 1027.0 in Calm     45 % 0.0 in 392.0 W/m2 CLR
11:03 7.2 °F -3.9 °F 1027.0 in Calm     45 % 0.0 in 401.0 W/m2 CLR
11:08 7.8 °F -3.4 °F 1027.0 in Calm     45 % 0.0 in 408.0 W/m2 CLR
11:13 8.3 °F -2.9 °F 1027.3 in Calm     45 % 0.0 in 415.0 W/m2 CLR
11:18 8.9 °F -3.1 °F 1027.3 in Calm     43 % 0.0 in 420.0 W/m2 CLR
11:23 9.4 °F -2.5 °F 1027.0 in Calm     43 % 0.0 in 427.0 W/m2 CLR
11:28 10.0 °F -2.0 °F 1027.0 in Calm     43 % 0.0 in 434.0 W/m2 CLR
11:33 10.6 °F -1.5 °F 1027.0 in Calm     43 % 0.0 in 438.0 W/m2 CLR
11:38 10.6 °F -1.5 °F 1027.0 in Calm     43 % 0.0 in 445.0 W/m2 CLR
11:48 11.1 °F -1.3 °F 1027.0 in East 5.6 mph 5.6 mph 42 % 0.0 in 454.0 W/m2 CLR
11:58 11.1 °F -1.0 °F 1026.6 in East 3.7 mph 3.7 mph 43 % 0.0 in 461.0 W/m2 CLR
12:03 11.7 °F -0.8 °F 1026.6 in East 5.6 mph 5.6 mph 42 % 0.0 in 464.0 W/m2 CLR
12:08 11.7 °F -0.8 °F 1026.6 in East 1.9 mph 1.9 mph 42 % 0.0 in 469.0 W/m2 CLR
12:13 12.2 °F -0.3 °F 1026.3 in SE 5.6 mph 5.6 mph 42 % 0.0 in 473.0 W/m2 CLR
12:18 12.2 °F -0.7 °F 1026.3 in East 4.8 mph 4.8 mph 41 % 0.0 in 475.0 W/m2 CLR
12:23 12.8 °F -0.2 °F 1026.3 in East 4.8 mph 4.8 mph 41 % 0.0 in 476.0 W/m2 CLR
12:28 12.8 °F -0.2 °F 1026.3 in ENE 5.6 mph 5.6 mph 41 % 0.0 in 478.0 W/m2 CLR
12:38 13.3 °F 0.0 °F 1026.0 in SE 3.7 mph 3.7 mph 40 % 0.0 in 480.0 W/m2 CLR
12:43 13.9 °F 0.8 °F 1026.0 in ENE 1.6 mph 1.6 mph 41 % 0.0 in 480.0 W/m2 CLR
12:53 13.9 °F 0.2 °F 1026.0 in SE 5.6 mph 5.6 mph 39 % 0.0 in 482.0 W/m2 CLR
12:58 14.4 °F 0.3 °F 1026.0 in East 6.4 mph 6.4 mph 38 % 0.0 in 478.0 W/m2 CLR
13:03 14.4 °F -0.1 °F 1025.6 in Calm     37 % 0.0 in 480.0 W/m2 CLR
13:08 14.4 °F -0.1 °F 1025.6 in ENE 5.6 mph 5.6 mph 37 % 0.0 in 478.0 W/m2 CLR
13:13 15.0 °F 0.1 °F 1025.6 in Calm   1.1 mph 36 % 0.0 in 476.0 W/m2 CLR
13:18 15.0 °F 0.1 °F 1025.3 in ENE 5.6 mph 5.6 mph 36 % 0.0 in 476.0 W/m2 CLR
13:23 15.0 °F 0.1 °F 1025.3 in NE 5.6 mph 5.6 mph 36 % 0.0 in 473.0 W/m2 CLR
13:38 15.0 °F -0.8 °F 1025.3 in ENE 3.7 mph   34 % 0.0 in 462.0 W/m2 CLR
13:43 15.0 °F -1.6 °F 1025.3 in NE 5.6 mph 5.6 mph 32 % 0.0 in 459.0 W/m2 CLR
13:54 15.6 °F -1.1 °F 1024.9 in ENE 4.8 mph 4.8 mph 32 % 0.0 in 448.0 W/m2 CLR
13:59 15.6 °F -1.6 °F 1024.9 in ENE 6.4 mph 6.4 mph 31 % 0.0 in 436.0 W/m2 CLR
14:04 16.1 °F -0.6 °F 1024.6 in ENE 5.6 mph 5.6 mph 32 % 0.0 in 438.0 W/m2 CLR
14:09 16.1 °F -0.6 °F 1024.6 in NNE 1.9 mph 1.9 mph 32 % 0.0 in 432.0 W/m2 CLR
14:14 16.1 °F -1.1 °F 1024.6 in NE 5.6 mph 5.6 mph 31 % 0.0 in 427.0 W/m2 CLR
14:19 16.1 °F -0.6 °F 1024.6 in NE 3.7 mph 3.7 mph 32 % 0.0 in 418.0 W/m2 CLR
14:24 16.1 °F -0.6 °F 1024.6 in ENE 3.7 mph   32 % 0.0 in 413.0 W/m2 CLR
14:29 16.1 °F -1.1 °F 1024.3 in Calm     31 % 0.0 in 404.0 W/m2 CLR
14:39 16.1 °F -1.1 °F 1024.3 in Calm     31 % 0.0 in 390.0 W/m2 CLR
14:44 16.1 °F -1.1 °F 1024.3 in Calm     31 % 0.0 in 381.0 W/m2 CLR
14:54 16.1 °F -1.1 °F 1024.3 in East 3.7 mph 3.7 mph 31 % 0.0 in 353.0 W/m2 CLR
15:04 16.7 °F -0.6 °F 1024.3 in Calm     31 % 0.0 in 341.0 W/m2 CLR
15:09 16.7 °F -0.6 °F 1024.3 in Calm     31 % 0.0 in 332.0 W/m2 CLR
15:14 16.7 °F -0.6 °F 1024.3 in East 3.7 mph 3.7 mph 31 % 0.0 in 323.0 W/m2 CLR
15:19 16.7 °F -0.6 °F 1024.3 in East 3.7 mph 3.7 mph 31 % 0.0 in 313.0 W/m2 CLR
15:24 16.7 °F -0.1 °F 1023.9 in East 3.2 mph 3.2 mph 32 % 0.0 in 301.0 W/m2 CLR
15:29 16.7 °F -0.1 °F 1023.9 in Calm     32 % 0.0 in 290.0 W/m2 CLR
15:44 16.7 °F -0.1 °F 1023.9 in East 4.8 mph 4.8 mph 32 % 0.0 in 251.0 W/m2 CLR
15:54 16.1 °F -0.6 °F 1023.9 in East 5.6 mph 5.6 mph 32 % 0.0 in 221.0 W/m2 CLR
15:59 16.1 °F -0.6 °F 1023.9 in ENE 3.7 mph 3.7 mph 32 % 0.0 in 206.0 W/m2 CLR
16:04 16.1 °F -0.6 °F 1023.9 in ENE 5.6 mph 5.6 mph 32 % 0.0 in 190.0 W/m2 CLR
16:09 15.6 °F -1.1 °F 1023.9 in ENE 5.6 mph 5.6 mph 32 % 0.0 in 172.0 W/m2 CLR
16:14 15.0 °F -1.6 °F 1023.6 in ENE 5.6 mph 5.6 mph 32 % 0.0 in 160.0 W/m2 CLR
16:19 15.0 °F -1.2 °F 1023.9 in ENE 5.6 mph 5.6 mph 33 % 0.0 in 146.0 W/m2 CLR
16:24 15.0 °F -1.2 °F 1023.9 in East 5.6 mph 5.6 mph 33 % 0.0 in 132.0 W/m2 CLR
16:29 14.4 °F -1.7 °F 1023.9 in Calm     33 % 0.0 in 114.0 W/m2 CLR
16:34 14.4 °F -1.7 °F 1023.9 in ENE 3.7 mph 3.7 mph 33 % 0.0 in 100.0 W/m2 CLR
16:39 13.9 °F -2.2 °F 1023.9 in East 5.6 mph 5.6 mph 33 % 0.0 in 86.0 W/m2 CLR
16:49 12.8 °F -2.7 °F 1023.9 in Calm     34 % 0.0 in 54.0 W/m2 SCT
16:59 11.7 °F -3.3 °F 1023.6 in Calm     35 % 0.0 in 39.0 W/m2 BKN
17:04 11.1 °F -3.8 °F 1023.9 in Calm     35 % 0.0 in 30.0 W/m2 BKN
17:09 10.6 °F -4.3 °F 1023.9 in Calm     35 % 0.0 in 23.0 W/m2 BKN
17:14 10.0 °F -4.8 °F 1023.9 in Calm     35 % 0.0 in 16.0 W/m2 BKN
17:19 9.4 °F -4.9 °F 1023.9 in Calm     36 % 0.0 in 12.0 W/m2 BKN
17:29 8.3 °F -5.9 °F 1023.9 in Calm     36 % 0.0 in 9.0 W/m2 BKN
17:34 7.8 °F -6.1 °F 1023.9 in Calm     37 % 0.0 in 5.0 W/m2 OVC
17:39 7.8 °F -6.1 °F 1023.9 in Calm     37 % 0.0 in 0.0 W/m2 OVC
17:44 7.2 °F -6.2 °F 1023.9 in Calm     38 % 0.0 in 0.0 W/m2 OVC
17:49 7.2 °F -6.2 °F 1023.9 in Calm     38 % 0.0 in 0.0 W/m2 CLR
17:54 7.2 °F -5.8 °F 1023.9 in Calm     39 % 0.0 in 0.0 W/m2 CLR
17:59 7.8 °F -5.3 °F 1023.9 in Calm     39 % 0.0 in 0.0 W/m2 CLR
18:09 8.3 °F -4.2 °F 1023.9 in Calm     41 % 0.0 in 0.0 W/m2 CLR
18:14 7.8 °F -4.3 °F 1023.9 in Calm     42 % 0.0 in 0.0 W/m2 CLR
18:24 7.2 °F -4.6 °F 1023.9 in Calm     43 % 0.0 in 0.0 W/m2 CLR
18:29 6.7 °F -4.4 °F 1023.9 in Calm     45 % 0.0 in 0.0 W/m2 CLR
18:34 6.7 °F -4.2 °F 1023.9 in Calm     46 % 0.0 in 0.0 W/m2 CLR
18:39 6.1 °F -4.1 °F 1023.9 in Calm     48 % 0.0 in 0.0 W/m2 CLR
18:44 6.1 °F -3.8 °F 1023.9 in Calm     49 % 0.0 in 0.0 W/m2 CLR
18:49 5.6 °F -4.1 °F 1023.9 in Calm     50 % 0.0 in 0.0 W/m2 CLR
18:59 4.4 °F -4.6 °F 1024.3 in Calm     52 % 0.0 in 0.0 W/m2 CLR
19:09 4.4 °F -4.3 °F 1024.3 in Calm     53 % 0.0 in 0.0 W/m2 CLR
19:14 3.9 °F -4.8 °F 1024.3 in Calm     53 % 0.0 in 0.0 W/m2 CLR
19:19 3.9 °F -4.6 °F 1024.3 in Calm     54 % 0.0 in 0.0 W/m2 CLR
19:29 3.3 °F -5.1 °F 1024.3 in Calm     54 % 0.0 in 0.0 W/m2 CLR
19:34 2.8 °F -5.4 °F 1024.3 in Calm     55 % 0.0 in 0.0 W/m2 CLR
19:35 2.8 °F -5.4 °F 1024.3 in Calm     55 % 0.0 in 0.0 W/m2 CLR
19:39 2.2 °F -5.9 °F 1024.3 in Calm     55 % 0.0 in 0.0 W/m2 CLR
19:50 1.7 °F -6.2 °F 1023.9 in Calm     56 % 0.0 in 0.0 W/m2 CLR
19:54 1.1 °F -6.7 °F 1023.9 in Calm     56 % 0.0 in 0.0 W/m2 CLR
20:05 1.1 °F -6.2 °F 1023.9 in Calm     58 % 0.0 in 0.0 W/m2 CLR
20:10 1.1 °F -6.2 °F 1023.9 in Calm     58 % 0.0 in 0.0 W/m2 CLR
20:15 1.1 °F -6.2 °F 1023.9 in Calm     58 % 0.0 in 0.0 W/m2 CLR
20:20 1.1 °F -6.0 °F 1023.9 in Calm     59 % 0.0 in 0.0 W/m2 CLR
20:30 0.6 °F -6.6 °F 1023.9 in Calm     59 % 0.0 in 0.0 W/m2 CLR
20:45 0.0 °F -6.8 °F 1023.9 in Calm     60 % 0.0 in 0.0 W/m2 CLR
20:55 0.0 °F -6.6 °F 1023.9 in Calm     61 % 0.0 in 0.0 W/m2 CLR
21:00 0.0 °F -6.6 °F 1023.9 in Calm     61 % 0.0 in 0.0 W/m2 CLR
21:10 1.1 °F -5.4 °F 1023.9 in Calm     62 % 0.0 in 0.0 W/m2 CLR
21:20 1.7 °F -4.6 °F 1023.9 in WSW 3.7 mph 3.7 mph 63 % 0.0 in 0.0 W/m2 CLR
21:35 1.1 °F -4.9 °F 1023.9 in Calm     64 % 0.0 in 0.0 W/m2 CLR
21:45 1.1 °F -4.9 °F 1023.9 in WSW 3.7 mph 3.7 mph 64 % 0.0 in 0.0 W/m2 CLR
21:50 1.1 °F -4.7 °F 1023.9 in Calm     65 % 0.0 in 0.0 W/m2 CLR
22:00 1.1 °F -4.6 °F 1023.9 in WSW 3.7 mph 3.7 mph 66 % 0.0 in 0.0 W/m2 CLR
22:05 0.6 °F -5.1 °F 1023.9 in Calm     66 % 0.0 in 0.0 W/m2 CLR
22:10 0.6 °F -5.1 °F 1023.9 in Calm     66 % 0.0 in 0.0 W/m2 CLR
22:15 0.6 °F -5.1 °F 1023.9 in WSW 3.2 mph 3.2 mph 66 % 0.0 in 0.0 W/m2 CLR
22:20 0.0 °F -5.4 °F 1023.9 in Calm     67 % 0.0 in 0.0 W/m2 CLR
22:25 0.0 °F -5.4 °F 1023.9 in Calm     67 % 0.0 in 0.0 W/m2 CLR
22:30 0.0 °F -5.4 °F 1023.9 in Calm     67 % 0.0 in 0.0 W/m2 CLR
22:35 0.0 °F -5.4 °F 1023.9 in Calm     67 % 0.0 in 0.0 W/m2 CLR
22:42 0.0 °F -5.2 °F 1023.9 in West 3.7 mph 3.7 mph 68 % 0.0 in 0.0 W/m2 CLR
22:47 0.6 °F -4.7 °F 1023.9 in WSW 3.7 mph 3.7 mph 68 % 0.0 in 0.0 W/m2 CLR
22:52 0.6 °F -4.7 °F 1023.9 in WSW 5.6 mph 5.6 mph 68 % 0.0 in 0.0 W/m2 CLR
22:57 0.0 °F -5.2 °F 1023.9 in Calm     68 % 0.0 in 0.0 W/m2 CLR
23:02 0.0 °F -5.4 °F 1023.9 in Calm     67 % 0.0 in 0.0 W/m2 CLR
23:07 0.0 °F -5.2 °F 1023.9 in Calm     68 % 0.0 in 0.0 W/m2 CLR
23:12 0.0 °F -5.0 °F 1023.9 in Calm     69 % 0.0 in 0.0 W/m2 CLR
23:22 0.0 °F -4.8 °F 1023.9 in Calm     70 % 0.0 in 0.0 W/m2 CLR
23:27 0.0 °F -4.8 °F 1023.9 in Calm     70 % 0.0 in 0.0 W/m2 CLR
23:32 -0.6 °F -5.6 °F 1023.9 in Calm     69 % 0.0 in 0.0 W/m2 CLR
23:37 -0.6 °F -5.6 °F 1023.9 in Calm     69 % 0.0 in 0.0 W/m2 CLR
23:44 -1.1 °F -5.9 °F 1023.9 in WSW 5.6 mph 5.6 mph 70 % 0.0 in 0.0 W/m2 CLR
23:49 -1.1 °F -5.7 °F 1023.6 in Calm     71 % 0.0 in 0.0 W/m2 CLR
23:54 -1.1 °F -5.7 °F 1023.6 in WSW 5.6 mph 5.6 mph 71 % 0.0 in 0.0 W/m2 CLR
23:59 -1.1 °F -5.5 °F 1023.6 in WSW 9.3 mph 9.3 mph 72 % 0.0 in 0.0 W/m2 CLR
Lo Temps de Massalio
Compliments of Weather Underground - 1 mb